• Join FlightAware (Why Join?)
  • Login
  • US Flag 
12:21AM EDT


 

Airport Tracker/Info


-or-


 

Live Flight TrackerFlight Track Log ✈ FIN666 ✈ 17-Nov-2013 ✈ EKCH / CPH - EFHK / HEL

Flight Track Log - Related Links

Times and Time Zones

All times are in EST time to prevent confusion due to time zone crossing. See the FIN666 flight status page for this flight to view local times or setup timezone preferences in your user account.

Time Position Orientation Groundspeed Altitude Reporting Facility
EST Latitude Longitude Course Direction KTS MPH feet Rate Location/Type
07:32AM 56.0189 13.4911 49° Northeast  Level Estimated
07:33AM 56.0985 13.6603 50° Northeast  Level Estimated
07:34AM 56.1858 13.8474 50° Northeast  Level Estimated
07:35AM 56.2729 14.0353 50° Northeast  Level Estimated
07:36AM 56.3596 14.2242 50° Northeast  Level Estimated
07:37AM 56.4461 14.4139 50° Northeast  Level Estimated
07:38AM 56.5323 14.6044 51° Northeast  Level Estimated
07:39AM 56.6182 14.7958 51° Northeast  Level Estimated
07:40AM 56.7024 14.9849 51° Northeast  Level Estimated
07:41AM 56.7863 15.1748 51° Northeast  Level Estimated
07:42AM 56.8699 15.3656 51° Northeast  Level Estimated
07:43AM 56.9532 15.5572 51° Northeast  Level Estimated
07:44AM 57.0362 15.7497 52° Northeast  Level Estimated
07:45AM 57.1189 15.9431 52° Northeast  Level Estimated
07:46AM 57.2013 16.1373 52° Northeast  Level Estimated
07:47AM 57.2834 16.3324 52° Northeast  Level Estimated
07:48AM 57.3652 16.5283 52° Northeast  Level Estimated
07:49AM 57.4468 16.7251 52° Northeast  Level Estimated
07:50AM 57.5280 16.9228 53° Northeast  Level Estimated
07:51AM 57.6088 17.1214 53° Northeast  Level Estimated
07:52AM 57.6894 17.3209 53° Northeast  Level Estimated
07:53AM 57.7697 17.5212 53° Northeast  Level Estimated
07:54AM 57.8496 17.7225 53° Northeast  Level Estimated
07:55AM 57.9292 17.9246 53° Northeast  Level Estimated
07:56AM 58.0085 18.1276 54° Northeast  Level Estimated
07:57AM 58.0875 18.3316 54° Northeast  Level Estimated
07:58AM 58.1662 18.5364 54° Northeast  Level Estimated
07:59AM 58.2445 18.7421 54° Northeast  Level Estimated
08:00AM 58.3225 18.9488 54° Northeast  Level Estimated
08:01AM 58.4001 19.1564 54° Northeast  Level Estimated
08:02AM 58.4775 19.3648 55° Northeast  Level Estimated
08:03AM 58.5544 19.5742 55° Northeast  Level Estimated
08:04AM 58.6311 19.7845 55° Northeast  Level Estimated
08:05AM 58.7074 19.9958 55° Northeast  Level Estimated
08:06AM 58.7833 20.2079 55° Northeast  Level Estimated
08:07AM 58.8589 20.4210 55° Northeast  Level Estimated
08:08AM 58.9354 20.6387 56° Northeast  Level Estimated
08:09AM 59.0116 20.8573 56° Northeast  Level Estimated
08:10AM 59.0873 21.0769 56° Northeast  Level Estimated
08:11AM 59.1627 21.2975 56° Northeast  Level Estimated
08:12AM 59.2378 21.5190 56° Northeast  Level Estimated
08:13AM 59.3124 21.7415 57° Northeast  Level Estimated
08:14AM 59.3867 21.9650 57° Northeast  Level Estimated
08:15AM 59.4606 22.1894 57° Northeast  Level Estimated
08:16AM 59.5341 22.4149 57° Northeast  Level Estimated
08:17AM 59.6072 22.6413 57° Northeast  Level Estimated
08:18AM 59.6799 22.8687 58° Northeast  Level Estimated
08:19AM 59.7522 23.0971 58° Northeast  Level Estimated
08:20AM 59.8242 23.3265 58° Northeast  Level Estimated
08:21AM 59.8957 23.5568 58° Northeast  Level Estimated
08:22AM 59.9668 23.7882 58° Northeast  Level Estimated
08:23AM 60.0375 24.0206 59° Northeast  Level Estimated
08:24AM 60.1078 24.2539 59° Northeast  Level Estimated
08:25AM 60.1777 24.4883 59° Northeast  Level Estimated
08:26AM 60.2472 24.7236 59° Northeast  Level Estimated
08:27AM 60.3162 24.9599 59° Northeast  Level Estimated
08:28AM 60.3172 24.9633 60° Northeast  Level Estimated
08:29AM 60.3172 24.9633 37° Northeast  Level Estimated
08:30AM 60.3172 24.9633 37° Northeast  Level Estimated
08:31AM 60.3172 24.9633 37° Northeast  Level Estimated
08:32AM 60.3172 24.9633 37° Northeast  Level Estimated
08:33AM 60.3172 24.9633 37° Northeast  Level Estimated
08:34AM 60.3172 24.9633 37° Northeast  Level Estimated
08:35AM 60.3172 24.9633 37° Northeast  Level Estimated
08:36AM 60.3172 24.9633 37° Northeast  Level Estimated
08:37AM 60.3172 24.9633 37° Northeast  Level Estimated
08:38AM 60.3172 24.9633 37° Northeast  Level Estimated
08:39AM 60.3172 24.9633 37° Northeast  Level Estimated
08:40AM 60.3172 24.9633 37° Northeast  Level Estimated
08:41AM 60.3172 24.9633 37° Northeast  Level Estimated
08:42AM 60.3172 24.9633 37° Northeast  Level Estimated